Time;durP1;ratioP1;P1;durP2;ratioP2;P2;SDS_P1;SDS_P2;PMS_P1;PMS_P2;Temp;Humidity;BMP_temperature;BMP_pressure;BME280_temperature;BME280_humidity;BME280_pressure;Samples;Min_cycle;Max_cycle;Signal;HPM_P1;HPM_P2
2023/04/28 00:02:10;;;;;;;5.00;4.60;;;;;;;11.78;80.03;154385.22;4986577;28;20452;-84
2023/04/28 00:04:36;;;;;;;7.33;5.20;;;;;;;11.81;78.00;154393.00;4978339;28;20464;-85
2023/04/28 00:07:03;;;;;;;5.70;4.93;;;;;;;11.88;78.03;154411.19;4975778;28;21227;-85
2023/04/28 00:09:30;;;;;;;5.10;4.60;;;;;;;11.89;81.56;154413.75;4973733;28;20911;-85
2023/04/28 00:11:58;;;;;;;6.23;5.50;;;;;;;11.85;81.80;154403.41;4993310;28;20439;-84
2023/04/28 00:14:25;;;;;;;6.90;5.80;;;;;;;11.84;83.87;154399.50;4965090;28;20454;-85
2023/04/28 00:16:52;;;;;;;6.53;5.77;;;;;;;11.79;80.39;154387.84;4958994;28;20448;-85
2023/04/28 00:19:19;;;;;;;8.70;6.30;;;;;;;11.80;80.70;154390.44;4983268;28;20461;-85
2023/04/28 00:21:46;;;;;;;6.17;5.57;;;;;;;11.84;83.40;154400.78;4970986;28;20927;-84
2023/04/28 00:24:12;;;;;;;7.23;5.90;;;;;;;11.82;84.54;154395.63;4975431;28;20770;-84
2023/04/28 00:26:39;;;;;;;6.20;5.60;;;;;;;11.81;85.47;154391.75;4982153;28;20898;-85
2023/04/28 00:29:07;;;;;;;7.23;6.30;;;;;;;11.77;86.98;154382.66;4990874;28;20461;-85
2023/04/28 00:31:34;;;;;;;6.47;5.87;;;;;;;11.73;87.56;154372.28;4965490;28;20976;-85
2023/04/28 00:34:00;;;;;;;7.10;5.63;;;;;;;11.69;87.88;154361.94;4973325;28;20536;-85
2023/04/28 00:36:30;;;;;;;8.90;6.30;;;;;;;11.69;89.35;154361.94;4974939;28;20463;-84
2023/04/28 00:38:58;;;;;;;6.40;5.60;;;;;;;11.68;88.18;154359.28;4964879;28;20453;-85
2023/04/28 00:41:24;;;;;;;6.43;5.83;;;;;;;11.68;90.23;154359.28;4987204;28;20477;-85
2023/04/28 00:43:51;;;;;;;6.40;5.07;;;;;;;11.66;90.63;154352.78;4957775;28;20446;-84
2023/04/28 00:46:21;;;;;;;5.50;5.00;;;;;;;11.61;89.15;154341.16;4952548;28;20535;-85
2023/04/28 00:48:49;;;;;;;6.90;5.53;;;;;;;11.62;90.14;154343.75;4978767;28;20537;-85
2023/04/28 00:51:15;;;;;;;6.53;5.67;;;;;;;11.60;90.14;154338.53;4977179;28;20488;-85
2023/04/28 00:53:43;;;;;;;6.37;5.70;;;;;;;11.61;90.90;154342.44;4970672;28;20444;-84
2023/04/28 00:56:10;;;;;;;7.13;5.37;;;;;;;11.53;88.84;154321.72;4968566;28;20489;-85
2023/04/28 00:58:59;;;;;;;6.73;6.03;;;;;;;11.52;88.04;154319.09;4973232;28;20457;-85
2023/04/28 01:01:27;;;;;;;6.17;5.57;;;;;;;11.52;88.99;154317.81;4964437;28;20468;-85
2023/04/28 01:03:54;;;;;;;8.10;6.30;;;;;;;11.54;91.48;154324.28;4988892;28;20464;-84
2023/04/28 01:06:21;;;;;;;7.40;5.80;;;;;;;11.53;91.90;154320.41;4974224;28;20981;-85
2023/04/28 01:08:49;;;;;;;6.37;5.67;;;;;;;11.49;91.71;154311.31;4955816;28;20469;-85
2023/04/28 01:11:17;;;;;;;6.33;5.53;;;;;;;11.49;90.52;154310.06;4974136;28;20483;-85
2023/04/28 01:14:03;;;;;;;6.77;6.13;;;;;;;11.54;93.13;154323.03;4957618;28;20457;-85
2023/04/28 01:16:37;;;;;;;7.63;6.50;;;;;;;11.47;90.10;154304.84;4960392;28;20501;-85
2023/04/28 01:19:07;;;;;;;6.87;5.17;;;;;;;11.50;89.78;154312.63;4960067;28;20453;-85
2023/04/28 01:21:35;;;;;;;6.93;5.70;;;;;;;11.53;91.44;154320.41;4965943;28;20485;-84
2023/04/28 01:24:13;;;;;;;7.27;6.17;;;;;;;11.52;91.78;154317.81;4956258;28;20560;-84
2023/04/28 01:26:40;;;;;;;6.80;6.10;;;;;;;11.53;91.86;154320.41;4984955;28;20546;-84
2023/04/28 01:29:06;;;;;;;8.00;6.70;;;;;;;11.53;91.89;154321.72;4997367;28;20455;-85
2023/04/28 01:31:33;;;;;;;6.73;6.07;;;;;;;11.50;91.37;154313.94;4961331;28;20486;-85
2023/04/28 01:33:59;;;;;;;8.37;6.80;;;;;;;11.51;92.20;154315.25;4977940;28;20454;-85
2023/04/28 01:36:27;;;;;;;8.90;6.70;;;;;;;11.52;94.32;154319.09;4977393;28;20494;-86
2023/04/28 01:38:54;;;;;;;10.33;6.67;;;;;;;11.49;94.02;154311.31;4960503;28;20463;-85
2023/04/28 01:41:22;;;;;;;7.40;6.07;;;;;;;11.47;91.33;154304.84;4955086;28;20535;-85
2023/04/28 01:43:48;;;;;;;7.37;6.23;;;;;;;11.51;91.60;154315.25;4956580;28;20555;-84
2023/04/28 01:46:15;;;;;;;8.87;6.33;;;;;;;11.52;92.79;154319.09;4951889;28;20503;-84
2023/04/28 01:48:41;;;;;;;6.70;6.10;;;;;;;11.54;92.24;154323.03;4958121;28;20471;-85
2023/04/28 01:51:08;;;;;;;5.63;5.00;;;;;;;11.52;91.89;154317.81;4956159;28;20571;-85
2023/04/28 01:53:38;;;;;;;4.90;4.43;;;;;;;11.52;91.53;154317.81;4956197;28;20474;-85
2023/04/28 01:56:05;;;;;;;6.93;5.87;;;;;;;11.56;93.30;154328.19;4968150;28;20539;-85
2023/04/28 01:58:32;;;;;;;5.83;5.10;;;;;;;11.56;93.65;154328.19;4986764;28;20452;-85
2023/04/28 02:00:59;;;;;;;7.73;5.43;;;;;;;11.59;94.63;154335.97;4980216;28;20486;-85
2023/04/28 02:03:26;;;;;;;6.93;5.77;;;;;;;11.55;94.59;154326.88;4968710;28;20489;-85
2023/04/28 02:05:55;;;;;;;6.20;4.77;;;;;;;11.53;94.49;154321.72;4971600;28;20560;-85
2023/04/28 02:08:21;;;;;;;6.10;5.20;;;;;;;11.54;93.27;154323.03;4991299;28;20698;-85
2023/04/28 02:10:48;;;;;;;6.03;5.30;;;;;;;11.57;94.64;154330.75;4999001;28;20479;-85
2023/04/28 02:13:15;;;;;;;6.00;5.40;;;;;;;11.53;93.23;154321.72;4975099;28;20938;-85
2023/04/28 02:15:44;;;;;;;6.03;5.43;;;;;;;11.56;93.29;154329.50;4972751;28;20533;-83
2023/04/28 02:18:10;;;;;;;6.77;5.53;;;;;;;11.56;94.44;154329.50;4968168;28;20464;-84
2023/04/28 02:20:39;;;;;;;6.00;5.40;;;;;;;11.53;93.36;154321.72;4983164;28;20542;-84
2023/04/28 02:23:08;;;;;;;7.50;5.70;;;;;;;11.53;91.78;154321.72;4958642;28;20849;-84
2023/04/28 02:25:35;;;;;;;5.53;4.90;;;;;;;11.56;93.62;154328.19;5002105;28;20900;-84
2023/04/28 02:28:02;;;;;;;6.10;5.50;;;;;;;11.55;92.96;154325.59;4979990;28;20845;-85
2023/04/28 02:30:28;;;;;;;6.10;5.50;;;;;;;11.54;93.36;154324.28;4977051;28;20498;-84
2023/04/28 02:32:57;;;;;;;7.90;5.60;;;;;;;11.52;92.27;154319.09;4954501;28;20469;-84
2023/04/28 02:35:23;;;;;;;6.57;5.97;;;;;;;11.52;91.39;154319.09;4978546;28;20983;-84
2023/04/28 02:37:51;;;;;;;7.13;6.00;;;;;;;11.56;94.50;154329.50;4977242;28;20476;-84
2023/04/28 02:40:18;;;;;;;6.47;5.87;;;;;;;11.51;92.75;154316.53;4991234;28;20478;-84
2023/04/28 02:42:45;;;;;;;12.73;6.80;;;;;;;11.52;91.87;154317.81;4972803;28;20969;-84
2023/04/28 02:45:12;;;;;;;7.00;6.30;;;;;;;11.49;91.91;154311.31;4982117;28;20522;-84
2023/04/28 02:47:38;;;;;;;7.23;6.03;;;;;;;11.52;93.35;154317.81;4966910;28;20472;-84
2023/04/28 02:50:08;;;;;;;8.07;6.20;;;;;;;11.52;92.98;154317.81;4972917;28;20471;-84
2023/04/28 02:52:35;;;;;;;6.20;5.53;;;;;;;11.51;93.31;154316.53;4971949;28;20449;-83
2023/04/28 02:55:03;;;;;;;8.40;5.70;;;;;;;11.49;92.60;154311.31;4957651;28;20515;-84
2023/04/28 02:57:30;;;;;;;7.37;5.87;;;;;;;11.52;94.15;154319.09;4956722;28;20469;-83
2023/04/28 02:59:56;;;;;;;6.33;5.73;;;;;;;11.56;96.45;154328.19;4956146;28;21025;-85
2023/04/28 03:02:25;;;;;;;8.13;6.57;;;;;;;11.53;97.06;154320.41;4974021;28;20476;-84
2023/04/28 03:04:51;;;;;;;8.73;6.90;;;;;;;11.53;98.86;154320.41;4958360;28;20461;-85
2023/04/28 03:07:19;;;;;;;8.80;6.40;;;;;;;11.49;98.96;154311.31;4967460;28;20464;-86
2023/04/28 03:09:47;;;;;;;8.23;7.10;;;;;;;11.47;100.00;154304.84;4992349;28;20515;-86
2023/04/28 03:12:14;;;;;;;9.47;8.47;;;;;;;11.47;100.00;154304.84;4977004;28;20452;-85
2023/04/28 03:14:40;;;;;;;8.90;7.80;;;;;;;11.45;100.00;154300.97;4997635;28;20817;-87
2023/04/28 03:17:07;;;;;;;7.53;6.30;;;;;;;11.45;100.00;154300.97;4973847;28;20806;-87
2023/04/28 03:19:33;;;;;;;8.20;6.53;;;;;;;11.41;100.00;154289.34;4978550;28;20463;-87
2023/04/28 03:22:00;;;;;;;8.33;6.17;;;;;;;11.39;100.00;154285.41;4975815;28;20486;-87
2023/04/28 03:24:28;;;;;;;6.80;6.10;;;;;;;11.37;100.00;154278.94;4953918;28;20454;-86
2023/04/28 03:26:54;;;;;;;7.60;5.83;;;;;;;11.38;100.00;154282.84;4981601;28;20856;-87
2023/04/28 03:29:23;;;;;;;8.43;5.90;;;;;;;11.40;100.00;154288.03;4961281;28;20546;-88
2023/04/28 03:31:49;;;;;;;6.13;5.53;;;;;;;11.38;100.00;154281.56;4971808;28;20846;-87
2023/04/28 03:34:16;;;;;;;7.13;6.40;;;;;;;11.40;100.00;154288.03;4992266;28;20475;-87
2023/04/28 03:36:42;;;;;;;6.00;5.10;;;;;;;11.40;100.00;154286.72;4957990;28;20907;-87
2023/04/28 03:39:18;;;;;;;5.90;4.90;;;;;;;11.40;100.00;154286.72;4961506;28;20455;-87
2023/04/28 03:41:46;;;;;;;6.00;5.13;;;;;;;11.40;100.00;154288.03;4964459;28;20823;-86
2023/04/28 03:44:45;;;;;;;5.30;4.47;;;;;;;11.42;100.00;154291.91;4940851;28;20460;-87
2023/04/28 03:47:18;;;;;;;5.70;5.20;;;;;;;11.43;100.00;154294.50;4958931;28;20480;-87
2023/04/28 03:49:45;;;;;;;7.03;5.50;;;;;;;11.45;100.00;154299.69;4965524;28;20487;-87
2023/04/28 03:52:12;;;;;;;5.60;5.00;;;;;;;11.42;100.00;154291.91;4963210;28;20866;-86
2023/04/28 03:54:40;;;;;;;8.10;5.47;;;;;;;11.42;100.00;154291.91;4990195;28;20502;-86
2023/04/28 03:57:09;;;;;;;7.30;5.33;;;;;;;11.42;100.00;154291.91;4979700;28;20524;-86
2023/04/28 03:59:36;;;;;;;5.70;5.20;;;;;;;11.41;100.00;154289.34;4953763;28;21033;-86
2023/04/28 04:02:02;;;;;;;8.20;5.80;;;;;;;11.37;100.00;154278.94;4961660;28;20468;-86
2023/04/28 04:04:29;;;;;;;7.67;4.80;;;;;;;11.39;100.00;154284.13;4964562;28;20455;-86
2023/04/28 04:06:56;;;;;;;5.93;5.00;;;;;;;11.36;100.00;154277.63;5007643;28;20527;-86
2023/04/28 04:09:23;;;;;;;6.20;5.47;;;;;;;11.37;100.00;154278.94;4967477;28;20457;-87
2023/04/28 04:11:49;;;;;;;6.10;5.43;;;;;;;11.40;100.00;154286.72;5000756;28;20446;-87
2023/04/28 04:14:18;;;;;;;5.63;5.00;;;;;;;11.43;100.00;154294.50;4958274;28;20464;-86
2023/04/28 04:16:44;;;;;;;6.30;5.47;;;;;;;11.43;100.00;154295.81;4981692;28;20457;-86
2023/04/28 04:19:18;;;;;;;5.00;4.23;;;;;;;11.43;100.00;154294.50;4975274;28;20463;-86
2023/04/28 04:21:49;;;;;;;6.67;5.50;;;;;;;11.46;100.00;154302.28;4956231;28;20538;-86
2023/04/28 04:24:15;;;;;;;4.93;4.43;;;;;;;11.47;100.00;154304.84;4978340;28;20504;-86
2023/04/28 04:26:42;;;;;;;4.83;4.33;;;;;;;11.52;100.00;154317.81;4970520;28;20523;-86
2023/04/28 04:29:42;;;;;;;6.97;5.30;;;;;;;11.53;100.00;154320.41;4968943;28;20463;-86
2023/04/28 04:32:16;;;;;;;5.57;4.40;;;;;;;11.52;100.00;154319.09;4953424;28;20454;-86
2023/04/28 04:34:43;;;;;;;6.20;5.60;;;;;;;11.54;100.00;154324.28;4972861;28;20515;-85
2023/04/28 04:37:11;;;;;;;5.10;4.57;;;;;;;11.56;100.00;154328.19;4977260;28;20477;-86
2023/04/28 04:39:44;;;;;;;6.27;4.50;;;;;;;11.52;100.00;154319.09;4980023;28;20467;-85
2023/04/28 04:42:10;;;;;;;4.87;4.37;;;;;;;11.54;100.00;154324.28;4955131;28;20904;-85
2023/04/28 04:44:47;;;;;;;6.10;5.23;;;;;;;11.58;100.00;154333.38;4974113;28;20463;-85
2023/04/28 04:47:27;;;;;;;6.00;5.40;;;;;;;11.57;100.00;154330.75;4965396;28;20471;-86
2023/04/28 04:49:53;;;;;;;4.90;4.37;;;;;;;11.56;100.00;154328.19;4956707;28;20471;-85
2023/04/28 04:52:20;;;;;;;4.83;4.27;;;;;;;11.55;100.00;154325.59;4973906;28;20448;-87
2023/04/28 04:54:47;;;;;;;5.00;4.00;;;;;;;11.57;100.00;154330.75;4975844;28;20521;-85
2023/04/28 04:57:14;;;;;;;4.97;4.50;;;;;;;11.57;100.00;154330.75;4976856;28;20974;-86
2023/04/28 05:00:06;;;;;;;5.50;4.57;;;;;;;11.56;100.00;154328.19;4976884;28;20550;-85
2023/04/28 05:02:32;;;;;;;5.07;4.57;;;;;;;11.57;100.00;154332.06;4962561;28;20574;-85
2023/04/28 05:05:00;;;;;;;6.37;4.73;;;;;;;11.57;100.00;154330.75;4982671;28;20459;-85
2023/04/28 05:07:27;;;;;;;7.53;4.93;;;;;;;11.60;100.00;154338.53;4960947;28;20476;-84
2023/04/28 05:09:54;;;;;;;6.33;4.90;;;;;;;11.60;100.00;154338.53;4976286;28;20495;-84
2023/04/28 05:12:21;;;;;;;5.10;4.60;;;;;;;11.61;100.00;154341.16;4960876;28;20572;-84
2023/04/28 05:14:47;;;;;;;5.13;4.63;;;;;;;11.61;100.00;154341.16;4976499;28;20541;-84
2023/04/28 05:17:16;;;;;;;5.20;4.70;;;;;;;11.61;100.00;154341.16;4956994;28;20464;-85
2023/04/28 05:19:43;;;;;;;4.80;4.40;;;;;;;11.59;100.00;154337.28;4961739;28;20885;-84
2023/04/28 05:22:10;;;;;;;5.03;4.53;;;;;;;11.60;100.00;154338.53;4969037;28;20479;-84
2023/04/28 05:24:37;;;;;;;5.20;4.70;;;;;;;11.59;100.00;154335.97;4969081;28;20457;-84
2023/04/28 05:27:03;;;;;;;5.10;4.60;;;;;;;11.58;100.00;154334.66;4969121;28;20472;-84
2023/04/28 05:29:30;;;;;;;5.70;5.03;;;;;;;11.58;100.00;154333.38;4978584;28;20454;-84
2023/04/28 05:31:56;;;;;;;6.23;5.60;;;;;;;11.57;100.00;154330.75;4993812;28;20846;-84
2023/04/28 05:34:25;;;;;;;6.13;5.30;;;;;;;11.57;100.00;154330.75;4965153;28;21069;-84
2023/04/28 05:36:52;;;;;;;8.97;5.57;;;;;;;11.57;100.00;154330.75;4960189;28;20478;-84
2023/04/28 05:39:25;;;;;;;5.73;4.83;;;;;;;11.56;100.00;154329.50;4963787;28;20557;-84
2023/04/28 05:41:58;;;;;;;5.90;5.30;;;;;;;11.57;100.00;154332.06;4950832;28;20479;-84
2023/04/28 05:44:25;;;;;;;5.23;4.70;;;;;;;11.57;100.00;154330.75;4983053;28;20504;-85
2023/04/28 05:46:53;;;;;;;7.13;5.40;;;;;;;11.56;100.00;154329.50;4963440;28;20547;-85
2023/04/28 05:49:27;;;;;;;6.03;5.27;;;;;;;11.57;100.00;154330.75;4976341;28;20498;-85
2023/04/28 05:51:55;;;;;;;6.20;5.30;;;;;;;11.55;100.00;154325.59;4963424;28;20518;-85
2023/04/28 05:54:21;;;;;;;5.87;5.20;;;;;;;11.56;100.00;154328.19;4972312;28;20448;-85
2023/04/28 05:56:51;;;;;;;6.10;5.50;;;;;;;11.56;100.00;154329.50;4954233;28;20492;-85
2023/04/28 05:59:18;;;;;;;6.83;5.13;;;;;;;11.55;100.00;154325.59;4979943;28;20471;-86
2023/04/28 06:01:45;;;;;;;5.73;5.13;;;;;;;11.54;100.00;154324.28;4990886;28;21126;-85
2023/04/28 06:04:11;;;;;;;6.60;5.90;;;;;;;11.54;100.00;154324.28;4981279;28;20468;-84
2023/04/28 06:06:40;;;;;;;6.43;5.23;;;;;;;11.56;100.00;154328.19;4990293;28;20511;-85
2023/04/28 06:09:07;;;;;;;5.47;4.97;;;;;;;11.56;100.00;154329.50;4953976;28;20473;-77
2023/04/28 06:11:34;;;;;;;6.40;5.57;;;;;;;11.56;100.00;154328.19;4983716;28;20509;-76
2023/04/28 06:14:22;;;;;;;6.47;5.87;;;;;;;11.55;100.00;154325.59;4955361;28;20912;-77
2023/04/28 06:16:49;;;;;;;6.07;5.47;;;;;;;11.54;100.00;154323.03;4962330;28;20820;-78
2023/04/28 06:19:17;;;;;;;6.70;6.00;;;;;;;11.55;100.00;154325.59;4983825;28;20464;-77
2023/04/28 06:21:45;;;;;;;7.40;6.57;;;;;;;11.56;100.00;154329.50;4977815;28;20476;-77
2023/04/28 06:24:12;;;;;;;7.70;5.90;;;;;;;11.57;100.00;154330.75;4948786;28;20442;-77
2023/04/28 06:26:40;;;;;;;8.00;6.10;;;;;;;11.58;100.00;154334.66;4948059;28;20457;-77
2023/04/28 06:29:09;;;;;;;6.00;5.27;;;;;;;11.60;100.00;154338.53;4977306;28;20469;-77
2023/04/28 06:31:35;;;;;;;7.43;6.33;;;;;;;11.59;100.00;154337.28;4990040;28;20549;-77
2023/04/28 06:34:02;;;;;;;8.53;5.63;;;;;;;11.61;100.00;154341.16;4978962;28;20822;-77
2023/04/28 06:36:29;;;;;;;7.43;6.73;;;;;;;11.59;100.00;154335.97;4977787;28;20460;-77
2023/04/28 06:38:57;;;;;;;6.93;6.00;;;;;;;11.60;100.00;154338.53;4986364;28;20460;-77
2023/04/28 06:41:24;;;;;;;7.40;6.10;;;;;;;11.60;100.00;154338.53;4979856;28;20453;-77
2023/04/28 06:43:52;;;;;;;6.87;6.17;;;;;;;11.62;100.00;154343.75;4947447;28;20453;-77
2023/04/28 06:46:25;;;;;;;9.33;7.10;;;;;;;11.63;100.00;154346.31;4947485;28;20987;-77
2023/04/28 06:48:52;;;;;;;8.67;7.00;;;;;;;11.65;100.00;154351.50;4962025;28;20461;-76
2023/04/28 06:51:19;;;;;;;7.10;5.67;;;;;;;11.67;100.00;154356.72;4989642;28;20971;-77
2023/04/28 06:53:45;;;;;;;6.30;5.67;;;;;;;11.70;100.00;154363.25;4977142;28;20464;-76
2023/04/28 06:56:14;;;;;;;8.97;6.73;;;;;;;11.71;100.00;154365.81;4946434;28;20465;-77
2023/04/28 06:58:40;;;;;;;8.30;7.10;;;;;;;11.78;100.00;154385.22;4989127;28;20451;-77
2023/04/28 07:01:07;;;;;;;6.67;6.07;;;;;;;11.76;100.00;154378.75;4978469;28;20515;-77
2023/04/28 07:03:33;;;;;;;7.23;6.53;;;;;;;11.74;100.00;154374.88;4977860;28;20477;-77
2023/04/28 07:06:00;;;;;;;6.83;6.13;;;;;;;11.74;100.00;154374.88;4985853;28;20462;-77
2023/04/28 07:08:28;;;;;;;6.83;6.13;;;;;;;11.76;100.00;154380.06;4978409;28;20454;-77
2023/04/28 07:10:55;;;;;;;8.00;7.20;;;;;;;11.78;100.00;154385.22;4987362;28;20589;-78
2023/04/28 07:13:23;;;;;;;7.13;6.43;;;;;;;11.81;100.00;154391.75;4985490;28;20452;-78
2023/04/28 07:15:49;;;;;;;8.07;7.27;;;;;;;11.83;100.00;154398.22;4975030;28;20465;-78
2023/04/28 07:18:16;;;;;;;7.90;6.53;;;;;;;11.86;100.00;154405.97;4956209;28;21201;-78
2023/04/28 07:20:42;;;;;;;8.40;7.27;;;;;;;11.87;100.00;154408.56;4973650;28;20590;-78
2023/04/28 07:23:09;;;;;;;8.00;6.93;;;;;;;11.91;100.00;154417.66;4982822;28;20993;-77
2023/04/28 07:25:36;;;;;;;7.57;6.77;;;;;;;11.95;100.00;154429.31;4984927;28;20555;-78
2023/04/28 07:28:03;;;;;;;8.17;7.20;;;;;;;11.97;100.00;154434.50;4972062;28;20457;-77
2023/04/28 07:30:31;;;;;;;7.33;6.50;;;;;;;12.01;100.00;154443.59;4969276;28;20953;-78
2023/04/28 07:32:58;;;;;;;7.53;6.80;;;;;;;12.03;100.00;154450.06;4976507;28;20990;-78
2023/04/28 07:35:25;;;;;;;9.97;6.90;;;;;;;12.06;100.00;154457.84;4985613;28;20461;-78
2023/04/28 07:37:52;;;;;;;8.37;7.57;;;;;;;12.10;100.00;154468.19;4984798;28;20556;-78
2023/04/28 07:40:19;;;;;;;7.37;6.67;;;;;;;12.16;100.00;154482.47;4983594;28;20841;-78
2023/04/28 07:42:45;;;;;;;8.60;7.53;;;;;;;12.18;100.00;154487.63;4976572;28;20652;-78
2023/04/28 07:45:13;;;;;;;8.10;7.03;;;;;;;12.21;100.00;154496.72;4959167;28;20914;-78
2023/04/28 07:47:41;;;;;;;7.90;6.73;;;;;;;12.23;100.00;154501.91;4981686;28;20457;-77
2023/04/28 07:50:08;;;;;;;7.10;6.40;;;;;;;12.27;100.00;154509.69;4973723;28;20840;-77
2023/04/28 07:52:35;;;;;;;8.07;6.93;;;;;;;12.28;100.00;154513.59;4960005;28;21064;-77
2023/04/28 07:55:03;;;;;;;8.13;7.30;;;;;;;12.30;100.00;154517.47;4984134;28;20464;-77
2023/04/28 07:57:30;;;;;;;6.63;5.93;;;;;;;12.33;100.00;154525.25;4985990;28;20889;-77
2023/04/28 07:59:56;;;;;;;7.23;6.53;;;;;;;12.33;100.00;154525.25;4986312;28;20461;-77
2023/04/28 08:02:23;;;;;;;7.90;5.20;;;;;;;12.34;100.00;154527.88;4986182;28;20845;-77
2023/04/28 08:04:51;;;;;;;5.87;5.27;;;;;;;12.32;100.00;154523.94;4971196;28;20484;-77
2023/04/28 08:07:17;;;;;;;6.57;5.87;;;;;;;12.36;100.00;154533.03;4986605;28;20461;-77
2023/04/28 08:09:46;;;;;;;5.80;4.83;;;;;;;12.36;100.00;154533.03;4965838;28;21019;-77
2023/04/28 08:12:13;;;;;;;6.43;5.83;;;;;;;12.37;100.00;154535.59;4982692;28;20458;-77
2023/04/28 08:14:40;;;;;;;7.43;6.00;;;;;;;12.37;100.00;154535.59;4983344;28;20924;-77
2023/04/28 08:17:07;;;;;;;7.33;5.73;;;;;;;12.33;100.00;154525.25;4981859;28;20447;-78
2023/04/28 08:19:34;;;;;;;5.67;5.17;;;;;;;12.34;100.00;154527.88;4973200;28;20465;-77
2023/04/28 08:22:04;;;;;;;6.17;5.57;;;;;;;12.35;100.00;154531.75;4986990;28;20458;-77
2023/04/28 08:24:33;;;;;;;5.73;4.90;;;;;;;12.37;100.00;154535.59;4985630;28;20452;-77
2023/04/28 08:27:01;;;;;;;6.87;6.10;;;;;;;12.38;100.00;154538.22;4977509;28;20461;-77
2023/04/28 08:29:28;;;;;;;6.33;5.73;;;;;;;12.39;100.00;154540.84;4961160;28;20453;-77
2023/04/28 08:31:55;;;;;;;7.17;6.47;;;;;;;12.39;100.00;154540.84;4974990;28;20471;-78
2023/04/28 08:34:21;;;;;;;6.87;5.77;;;;;;;12.40;100.00;154543.41;4985081;28;20581;-77
2023/04/28 08:36:47;;;;;;;5.70;5.10;;;;;;;12.45;100.00;154556.34;4972174;28;20520;-75
2023/04/28 08:39:15;;;;;;;6.50;5.80;;;;;;;12.47;100.00;154561.59;4983376;28;20930;-75
2023/04/28 08:41:42;;;;;;;5.70;5.10;;;;;;;12.48;100.00;154564.16;4979971;28;20549;-76
2023/04/28 08:44:10;;;;;;;6.93;5.93;;;;;;;12.49;100.00;154568.06;4965296;28;20474;-76
2023/04/28 08:46:40;;;;;;;6.67;6.07;;;;;;;12.52;100.00;154574.53;4981439;28;20466;-76
2023/04/28 08:49:07;;;;;;;6.80;6.10;;;;;;;12.52;100.00;154575.78;4985811;28;20545;-76
2023/04/28 08:51:36;;;;;;;8.20;6.60;;;;;;;12.54;100.00;154579.72;4976481;28;20470;-76
2023/04/28 08:54:04;;;;;;;10.40;6.00;;;;;;;12.58;100.00;154590.06;4972300;28;20457;-76
2023/04/28 08:56:34;;;;;;;6.60;5.90;;;;;;;12.60;100.00;154595.28;4976747;28;20481;-76
2023/04/28 08:59:02;;;;;;;6.97;6.27;;;;;;;12.62;100.00;154600.47;4983309;28;20455;-75
2023/04/28 09:01:29;;;;;;;7.70;6.40;;;;;;;12.63;100.00;154603.03;4983909;28;20571;-76
2023/04/28 09:03:56;;;;;;;7.23;6.07;;;;;;;12.67;100.00;154613.44;4981104;28;20481;-76
2023/04/28 09:06:22;;;;;;;6.30;5.50;;;;;;;12.71;100.00;154623.78;4985471;28;20533;-75
2023/04/28 09:08:49;;;;;;;7.17;6.47;;;;;;;12.74;100.00;154631.56;4983637;28;21163;-75
2023/04/28 09:11:16;;;;;;;9.40;6.53;;;;;;;12.74;100.00;154632.88;4963153;28;20490;-75
2023/04/28 09:13:44;;;;;;;6.20;5.60;;;;;;;12.78;100.00;154641.97;4972774;28;21040;-75
2023/04/28 09:16:10;;;;;;;6.87;6.27;;;;;;;12.80;100.00;154648.47;4967447;28;20459;-76
2023/04/28 09:18:36;;;;;;;6.33;5.60;;;;;;;12.83;100.00;154656.25;4962552;28;20461;-76
2023/04/28 09:21:04;;;;;;;7.43;6.73;;;;;;;12.89;100.00;154670.53;4972776;28;20542;-76
2023/04/28 09:23:32;;;;;;;6.83;6.13;;;;;;;12.91;100.00;154674.41;4971662;28;20730;-75
2023/04/28 09:26:00;;;;;;;8.67;6.00;;;;;;;12.93;100.00;154680.88;4962935;28;21028;-76
2023/04/28 09:28:27;;;;;;;6.13;5.50;;;;;;;12.96;100.00;154688.66;4963778;28;20458;-74
2023/04/28 09:30:55;;;;;;;7.63;6.83;;;;;;;12.98;100.00;154692.53;4961057;28;20455;-76
2023/04/28 09:33:22;;;;;;;6.27;5.67;;;;;;;13.00;100.00;154699.03;4964328;28;20461;-75
2023/04/28 09:35:49;;;;;;;6.60;5.57;;;;;;;13.04;100.00;154708.13;4968413;28;20468;-76
2023/04/28 09:38:16;;;;;;;6.53;5.77;;;;;;;13.09;100.00;154721.13;4967844;28;20467;-76
2023/04/28 09:40:51;;;;;;;7.10;6.40;;;;;;;13.18;100.00;154745.81;4969064;28;20567;-76
2023/04/28 09:43:28;;;;;;;6.40;5.73;;;;;;;13.25;100.00;154762.66;4968375;28;20471;-76
2023/04/28 09:45:57;;;;;;;6.60;5.60;;;;;;;13.33;100.00;154784.72;4970806;28;20467;-76
2023/04/28 09:48:32;;;;;;;6.77;6.10;;;;;;;13.45;100.00;154813.28;4982791;28;20538;-76
2023/04/28 09:50:59;;;;;;;8.43;6.83;;;;;;;13.55;100.00;154839.22;4970024;28;20606;-76
2023/04/28 09:53:26;;;;;;;6.93;6.23;;;;;;;13.66;100.00;154867.78;4962978;28;20459;-76
2023/04/28 09:55:54;;;;;;;6.53;5.50;;;;;;;13.81;100.00;154906.72;4972253;28;20453;-76
2023/04/28 09:58:22;;;;;;;6.87;5.50;;;;;;;13.83;100.00;154911.91;4950784;28;20458;-76
2023/04/28 10:00:53;;;;;;;5.40;4.87;;;;;;;13.93;100.00;154939.16;4963803;28;20821;-76
2023/04/28 10:03:23;;;;;;;5.83;5.30;;;;;;;14.03;100.00;154963.84;4958764;28;20478;-76
2023/04/28 10:05:52;;;;;;;6.30;5.27;;;;;;;14.18;100.00;155001.50;4961595;28;20559;-76
2023/04/28 10:08:20;;;;;;;6.20;5.60;;;;;;;14.33;100.00;155041.78;4962265;28;20457;-76
2023/04/28 10:10:48;;;;;;;4.93;4.53;;;;;;;14.48;100.00;155080.72;4959449;28;21458;-76
2023/04/28 10:13:16;;;;;;;5.50;4.83;;;;;;;14.56;100.00;155101.50;4950908;28;20819;-76
2023/04/28 10:15:43;;;;;;;4.63;4.13;;;;;;;14.59;100.00;155109.31;4953375;28;20458;-76
2023/04/28 10:18:11;;;;;;;4.40;3.80;;;;;;;14.64;100.00;155121.00;4945775;28;20526;-76
2023/04/28 10:20:39;;;;;;;3.90;3.50;;;;;;;14.76;100.00;155150.88;4952028;28;20476;-76
2023/04/28 10:23:21;;;;;;;4.00;3.60;;;;;;;14.88;100.00;155182.09;4948190;28;20475;-76
2023/04/28 10:25:48;;;;;;;4.67;3.70;;;;;;;14.95;100.00;155201.56;4957397;28;20486;-76
2023/04/28 10:28:16;;;;;;;5.27;4.60;;;;;;;15.00;100.00;155214.56;4945900;28;20519;-76
2023/04/28 10:30:42;;;;;;;3.70;3.20;;;;;;;15.08;100.00;155234.03;4944780;28;20688;-76
2023/04/28 10:33:25;;;;;;;4.30;3.40;;;;;;;15.14;100.00;155249.66;4956791;28;20455;-76
2023/04/28 10:35:53;;;;;;;4.20;3.20;;;;;;;15.08;100.00;155234.03;4954792;28;20462;-76
2023/04/28 10:38:21;;;;;;;3.30;3.00;;;;;;;15.10;100.00;155239.22;4945697;28;20461;-76
2023/04/28 10:40:48;;;;;;;3.47;2.83;;;;;;;15.13;100.00;155247.03;4948381;28;21414;-76
2023/04/28 10:43:33;;;;;;;3.43;3.13;;;;;;;15.14;100.00;155250.91;4958006;28;20822;-75
2023/04/28 10:46:10;;;;;;;3.57;2.87;;;;;;;15.14;100.00;155249.66;4947397;28;20456;-77
2023/04/28 10:48:56;;;;;;;2.57;2.30;;;;;;;15.11;100.00;155241.84;4949109;28;20452;-76
2023/04/28 10:51:31;;;;;;;2.90;2.20;;;;;;;15.09;100.00;155237.91;4943176;28;20473;-76
2023/04/28 10:54:22;;;;;;;2.73;2.10;;;;;;;15.19;100.00;155262.63;4945037;28;20902;-76
2023/04/28 10:57:19;;;;;;;2.30;2.10;;;;;;;15.20;100.00;155266.50;4929383;28;20486;-76
2023/04/28 10:59:46;;;;;;;1.60;1.30;;;;;;;15.23;100.00;155273.00;4932979;28;20471;-76
2023/04/28 11:02:42;;;;;;;1.93;1.40;;;;;;;15.32;100.00;155296.41;4955633;28;21003;-76
2023/04/28 11:05:13;;;;;;;1.40;1.10;;;;;;;15.33;100.00;155297.72;4957302;28;20484;-77
2023/04/28 11:07:41;;;;;;;1.40;1.00;;;;;;;15.43;100.00;155325.00;4943484;28;20483;-76
2023/04/28 11:10:08;;;;;;;1.60;1.10;;;;;;;15.45;100.00;155330.19;4970875;28;21100;-76
2023/04/28 11:12:35;;;;;;;2.07;1.20;;;;;;;15.50;100.00;155343.25;4971356;28;20457;-76
2023/04/28 11:15:12;;;;;;;5.53;1.57;;;;;;;15.52;100.00;155348.44;4978266;28;20458;-77
2023/04/28 11:17:43;;;;;;;1.13;0.77;;;;;;;15.56;100.00;155358.84;4988667;28;21006;-77
2023/04/28 11:20:13;;;;;;;2.00;0.90;;;;;;;15.66;100.00;155384.84;4986819;28;20473;-78
2023/04/28 11:22:41;;;;;;;2.27;1.13;;;;;;;15.70;100.00;155395.22;4987465;28;20547;-77
2023/04/28 11:25:08;;;;;;;2.60;1.97;;;;;;;15.78;100.00;155414.72;4988032;28;20485;-77
2023/04/28 11:27:36;;;;;;;2.63;1.50;;;;;;;15.80;100.00;155421.25;4988517;28;20487;-77